createdAt,value
2023-04-30T00:02:18.873Z,71.17
2023-04-30T00:04:45.870Z,71.12
2023-04-30T00:07:12.717Z,71.29
2023-04-30T00:09:39.967Z,71.38
2023-04-30T00:12:06.774Z,71.40
2023-04-30T00:14:33.579Z,71.31
2023-04-30T00:17:00.480Z,71.41
2023-04-30T00:19:27.792Z,71.28
2023-04-30T00:21:54.512Z,71.24
2023-04-30T00:24:22.584Z,71.03
2023-04-30T00:26:49.750Z,70.97
2023-04-30T00:29:16.598Z,70.96
2023-04-30T00:31:43.685Z,70.96
2023-04-30T00:34:10.475Z,71.00
2023-04-30T00:36:37.188Z,71.10
2023-04-30T00:39:04.343Z,70.91
2023-04-30T00:41:31.122Z,71.06
2023-04-30T00:43:58.991Z,71.09
2023-04-30T00:46:26.009Z,70.76
2023-04-30T00:48:52.869Z,70.93
2023-04-30T00:51:19.696Z,70.78
2023-04-30T00:53:46.607Z,70.78
2023-04-30T00:56:13.756Z,70.83
2023-04-30T00:58:40.466Z,70.92
2023-04-30T01:01:07.375Z,70.48
2023-04-30T01:03:36.551Z,70.51
2023-04-30T01:06:03.566Z,70.57
2023-04-30T01:08:31.989Z,70.29
2023-04-30T01:10:58.720Z,70.38
2023-04-30T01:13:30.672Z,70.17
2023-04-30T01:16:00.986Z,70.32
2023-04-30T01:18:42.470Z,70.36
2023-04-30T01:21:09.402Z,70.35
2023-04-30T01:24:17.193Z,70.40
2023-04-30T01:27:20.992Z,70.26
2023-04-30T01:29:47.709Z,70.39
2023-04-30T01:32:14.665Z,70.30
2023-04-30T01:34:41.629Z,70.24
2023-04-30T01:37:52.732Z,70.31
2023-04-30T01:40:26.808Z,69.95
2023-04-30T01:43:05.736Z,69.99
2023-04-30T01:46:01.591Z,70.01
2023-04-30T01:48:43.400Z,69.82
2023-04-30T01:51:28.428Z,69.63
2023-04-30T01:54:01.118Z,69.83
2023-04-30T01:56:32.360Z,69.60
2023-04-30T01:58:59.777Z,69.53
2023-04-30T02:01:32.019Z,69.38
2023-04-30T02:03:59.219Z,69.41
2023-04-30T02:06:30.331Z,69.38
2023-04-30T02:09:02.639Z,69.15
2023-04-30T02:11:29.993Z,69.34
2023-04-30T02:13:56.940Z,69.17
2023-04-30T02:16:24.256Z,69.32
2023-04-30T02:18:51.565Z,69.22
2023-04-30T02:21:18.716Z,69.08
2023-04-30T02:23:45.442Z,69.38
2023-04-30T02:26:12.174Z,69.25
2023-04-30T02:28:39.168Z,69.21
2023-04-30T02:31:06.143Z,69.32
2023-04-30T02:33:32.910Z,69.25
2023-04-30T02:36:00.678Z,69.37
2023-04-30T02:38:27.496Z,69.23
2023-04-30T02:40:54.388Z,69.44
2023-04-30T02:43:21.203Z,69.32
2023-04-30T02:45:48.391Z,69.03
2023-04-30T02:48:15.404Z,69.08
2023-04-30T02:50:42.188Z,68.95
2023-04-30T02:53:08.951Z,69.17
2023-04-30T02:55:35.770Z,69.04
2023-04-30T02:58:02.594Z,69.21
2023-04-30T03:00:29.386Z,69.24
2023-04-30T03:02:56.390Z,69.09
2023-04-30T03:05:23.924Z,68.88
2023-04-30T03:07:50.809Z,69.14
2023-04-30T03:10:19.260Z,68.85
2023-04-30T03:12:46.338Z,68.92
2023-04-30T03:15:13.173Z,68.83
2023-04-30T03:17:40.053Z,68.81
2023-04-30T03:20:07.717Z,69.14
2023-04-30T03:22:34.436Z,69.24
2023-04-30T03:25:01.391Z,69.28
2023-04-30T03:27:28.314Z,69.22
2023-04-30T03:29:55.509Z,69.48
2023-04-30T03:32:22.784Z,69.58
2023-04-30T03:34:50.223Z,69.59
2023-04-30T03:37:17.037Z,69.45
2023-04-30T03:39:43.758Z,69.47
2023-04-30T03:42:10.721Z,69.73
2023-04-30T03:44:39.234Z,69.50
2023-04-30T03:47:06.063Z,69.73
2023-04-30T03:49:33.324Z,69.58
2023-04-30T03:52:00.058Z,69.84
2023-04-30T03:54:26.815Z,69.72
2023-04-30T03:56:53.693Z,69.75
2023-04-30T03:59:20.968Z,70.01
2023-04-30T04:01:47.839Z,69.91
2023-04-30T04:04:17.867Z,70.00
2023-04-30T04:06:44.792Z,69.85
2023-04-30T04:09:11.662Z,70.13
2023-04-30T04:11:38.552Z,69.85
2023-04-30T04:14:05.464Z,69.94
2023-04-30T04:16:32.269Z,70.26
2023-04-30T04:18:59.295Z,70.25
2023-04-30T04:21:26.014Z,70.34
2023-04-30T04:23:52.857Z,70.34
2023-04-30T04:26:21.782Z,70.05
2023-04-30T04:28:48.550Z,70.13
2023-04-30T04:31:16.075Z,69.93
2023-04-30T04:33:42.912Z,70.19
2023-04-30T04:36:10.305Z,70.17
2023-04-30T04:38:37.057Z,70.34
2023-04-30T04:41:03.864Z,69.66
2023-04-30T04:43:30.983Z,70.00
2023-04-30T04:45:57.845Z,70.39
2023-04-30T04:48:24.745Z,70.09
2023-04-30T04:50:51.587Z,70.16
2023-04-30T04:53:18.307Z,70.21
2023-04-30T04:55:45.106Z,70.07
2023-04-30T04:58:11.846Z,70.11
2023-04-30T05:00:39.486Z,70.08
2023-04-30T05:03:06.306Z,70.30
2023-04-30T05:05:33.140Z,70.04
2023-04-30T05:07:59.920Z,70.13
2023-04-30T05:10:26.631Z,70.24
2023-04-30T05:12:53.338Z,70.50
2023-04-30T05:15:20.275Z,70.63
2023-04-30T05:17:47.105Z,70.62
2023-04-30T05:20:13.901Z,70.47
2023-04-30T05:22:40.842Z,70.60
2023-04-30T05:25:07.993Z,70.66
2023-04-30T05:27:34.774Z,70.47
2023-04-30T05:30:01.837Z,70.43
2023-04-30T05:32:28.611Z,70.61
2023-04-30T05:34:55.821Z,70.75
2023-04-30T05:37:23.071Z,70.84
2023-04-30T05:39:49.836Z,70.83
2023-04-30T05:42:16.626Z,70.67
2023-04-30T05:44:43.504Z,70.71
2023-04-30T05:47:10.217Z,70.84
2023-04-30T05:49:36.956Z,70.48
2023-04-30T05:52:04.060Z,70.91
2023-04-30T05:54:31.200Z,70.43
2023-04-30T05:56:58.001Z,70.82
2023-04-30T05:59:25.107Z,70.83
2023-04-30T06:01:52.425Z,70.90
2023-04-30T06:04:19.184Z,70.77
2023-04-30T06:06:46.022Z,71.07
2023-04-30T06:09:12.864Z,71.13
2023-04-30T06:11:42.257Z,70.69
2023-04-30T06:14:09.541Z,70.94
2023-04-30T06:16:36.394Z,71.01
2023-04-30T06:19:03.408Z,71.35
2023-04-30T06:21:30.237Z,71.52
2023-04-30T06:23:57.081Z,71.83
2023-04-30T06:26:23.908Z,71.95
2023-04-30T06:28:50.629Z,72.21
2023-04-30T06:31:17.497Z,72.67
2023-04-30T06:33:44.405Z,72.76
2023-04-30T06:36:11.245Z,72.76
2023-04-30T06:38:38.059Z,72.93
2023-04-30T06:41:04.967Z,72.85
2023-04-30T06:43:32.383Z,72.80
2023-04-30T06:45:59.164Z,73.15
2023-04-30T06:48:26.149Z,72.58
2023-04-30T06:50:53.015Z,72.63
2023-04-30T06:53:19.945Z,72.76
2023-04-30T06:55:47.201Z,72.82
2023-04-30T06:58:14.089Z,72.77
2023-04-30T07:00:40.892Z,72.68
2023-04-30T07:03:08.316Z,72.52
2023-04-30T07:05:35.205Z,72.54
2023-04-30T07:08:02.413Z,72.46
2023-04-30T07:10:29.792Z,72.68
2023-04-30T07:12:56.737Z,72.40
2023-04-30T07:15:23.801Z,72.09
2023-04-30T07:17:50.754Z,71.97
2023-04-30T07:20:17.727Z,71.97
2023-04-30T07:22:46.171Z,71.88
2023-04-30T07:25:13.824Z,71.75
2023-04-30T07:27:41.004Z,71.96
2023-04-30T07:30:10.364Z,72.00
2023-04-30T07:32:37.658Z,72.02
2023-04-30T07:35:05.035Z,71.78
2023-04-30T07:37:34.203Z,71.92
2023-04-30T07:40:02.323Z,71.92
2023-04-30T07:42:29.179Z,72.25
2023-04-30T07:44:56.004Z,72.23
2023-04-30T07:47:22.879Z,72.09
2023-04-30T07:49:49.875Z,72.19
2023-04-30T07:52:16.606Z,72.35
2023-04-30T07:54:43.425Z,72.03
2023-04-30T07:57:10.308Z,72.28
2023-04-30T07:59:37.189Z,72.31
2023-04-30T08:02:04.093Z,72.43
2023-04-30T08:04:30.930Z,72.00
2023-04-30T08:06:57.843Z,72.12
2023-04-30T08:09:24.564Z,71.97
2023-04-30T08:11:51.397Z,71.84
2023-04-30T08:14:18.215Z,72.11
2023-04-30T08:16:44.984Z,72.16
2023-04-30T08:19:11.802Z,72.16
2023-04-30T08:21:38.869Z,71.72
2023-04-30T08:24:05.705Z,71.49
2023-04-30T08:26:32.437Z,70.98
2023-04-30T08:28:59.243Z,70.55
2023-04-30T08:31:26.116Z,70.22
2023-04-30T08:33:52.963Z,70.04
2023-04-30T08:36:19.950Z,69.78
2023-04-30T08:38:46.782Z,69.56
2023-04-30T08:41:14.353Z,69.54
2023-04-30T08:43:41.642Z,69.20
2023-04-30T08:46:09.721Z,68.86
2023-04-30T08:48:36.493Z,68.33
2023-04-30T08:51:03.947Z,67.85
2023-04-30T08:53:31.634Z,67.76
2023-04-30T08:55:58.537Z,67.62
2023-04-30T08:58:25.496Z,67.39
2023-04-30T09:00:52.384Z,67.07
2023-04-30T09:03:19.316Z,66.70
2023-04-30T09:05:46.325Z,66.37
2023-04-30T09:08:18.755Z,65.64
2023-04-30T09:10:45.615Z,65.70
2023-04-30T09:13:12.442Z,64.88
2023-04-30T09:15:41.748Z,64.81
2023-04-30T09:18:12.953Z,63.59
2023-04-30T09:20:53.920Z,63.71
2023-04-30T09:23:20.898Z,63.62
2023-04-30T09:25:47.628Z,63.33
2023-04-30T09:28:14.430Z,62.47
2023-04-30T09:30:42.928Z,62.44
2023-04-30T09:33:12.021Z,61.72
2023-04-30T09:35:40.382Z,61.26
2023-04-30T09:38:07.274Z,61.50
2023-04-30T09:40:43.223Z,60.67
2023-04-30T09:43:10.104Z,60.22
2023-04-30T09:45:44.788Z,59.57
2023-04-30T09:48:17.036Z,59.92
2023-04-30T09:50:48.036Z,59.04
2023-04-30T09:53:14.959Z,59.16
2023-04-30T09:55:44.297Z,58.39
2023-04-30T09:58:11.459Z,58.51
2023-04-30T10:00:39.958Z,58.09
2023-04-30T10:03:08.801Z,58.38
2023-04-30T10:05:43.339Z,58.16
2023-04-30T10:08:19.982Z,58.40
2023-04-30T10:10:47.781Z,58.73
2023-04-30T10:13:20.232Z,58.09
2023-04-30T10:15:50.672Z,57.87
2023-04-30T10:18:37.027Z,57.26
2023-04-30T10:21:04.414Z,56.63
2023-04-30T10:23:31.278Z,55.93
2023-04-30T10:25:58.119Z,55.38
2023-04-30T10:28:25.497Z,54.77
2023-04-30T10:30:52.210Z,54.20
2023-04-30T10:33:22.833Z,53.46
2023-04-30T10:35:54.166Z,52.68
2023-04-30T10:38:28.225Z,52.03
2023-04-30T10:41:03.912Z,52.00
2023-04-30T10:43:30.887Z,52.14
2023-04-30T10:45:58.862Z,51.73
2023-04-30T10:48:27.057Z,50.99
2023-04-30T10:50:56.560Z,50.22
2023-04-30T10:53:25.472Z,50.08
2023-04-30T10:55:58.480Z,50.69
2023-04-30T10:58:30.204Z,50.08
2023-04-30T11:01:12.279Z,49.14
2023-04-30T11:03:41.117Z,48.15
2023-04-30T11:06:14.959Z,47.82
2023-04-30T11:08:48.111Z,46.91
2023-04-30T11:11:18.790Z,46.38
2023-04-30T11:13:45.860Z,47.01
2023-04-30T11:16:12.734Z,46.60
2023-04-30T11:18:46.113Z,45.94
2023-04-30T11:21:13.346Z,46.18
2023-04-30T11:23:44.630Z,45.26
2023-04-30T11:26:11.578Z,45.49
2023-04-30T11:28:38.524Z,44.49
2023-04-30T11:31:05.640Z,44.05
2023-04-30T11:33:33.110Z,44.19
2023-04-30T11:36:00.754Z,43.92
2023-04-30T11:38:29.037Z,43.80
2023-04-30T11:40:57.074Z,43.00
2023-04-30T11:43:34.141Z,43.27
2023-04-30T11:46:09.571Z,42.40
2023-04-30T11:48:38.365Z,41.93
2023-04-30T11:51:14.306Z,43.70
2023-04-30T11:53:41.680Z,42.33
2023-04-30T11:56:08.710Z,41.54
2023-04-30T11:58:38.175Z,41.03
2023-04-30T12:01:06.721Z,41.06
2023-04-30T12:03:33.927Z,40.80
2023-04-30T12:06:01.762Z,41.10
2023-04-30T12:08:28.847Z,40.83
2023-04-30T12:10:55.648Z,41.29
2023-04-30T12:13:22.625Z,41.61
2023-04-30T12:15:59.977Z,41.26
2023-04-30T12:18:27.291Z,40.93
2023-04-30T12:20:54.412Z,41.33
2023-04-30T12:23:21.237Z,41.28
2023-04-30T12:25:48.127Z,41.08
2023-04-30T12:28:14.893Z,40.59
2023-04-30T12:30:41.797Z,40.26
2023-04-30T12:33:10.366Z,39.74
2023-04-30T12:35:37.520Z,40.84
2023-04-30T12:38:05.686Z,39.41
2023-04-30T12:40:32.622Z,39.10
2023-04-30T12:43:07.144Z,37.99
2023-04-30T12:45:53.504Z,37.18
2023-04-30T12:48:24.683Z,37.04
2023-04-30T12:50:55.692Z,36.47
2023-04-30T12:53:23.215Z,36.04
2023-04-30T12:56:09.764Z,36.15
2023-04-30T12:58:38.235Z,35.39
2023-04-30T13:01:06.252Z,35.00
2023-04-30T13:03:33.186Z,34.20
2023-04-30T13:06:02.881Z,34.25
2023-04-30T13:08:29.776Z,35.16
2023-04-30T13:10:56.565Z,35.90
2023-04-30T13:13:23.318Z,36.68
2023-04-30T13:15:50.129Z,37.34
2023-04-30T13:18:17.047Z,38.59
2023-04-30T13:20:44.016Z,39.34
2023-04-30T13:23:12.121Z,39.94
2023-04-30T13:25:39.155Z,40.54
2023-04-30T13:28:05.920Z,41.17
2023-04-30T13:30:32.696Z,41.70
2023-04-30T13:33:00.004Z,42.57
2023-04-30T13:35:27.534Z,43.20
2023-04-30T13:37:54.887Z,43.62
2023-04-30T13:40:21.940Z,44.14
2023-04-30T13:42:49.280Z,44.63
2023-04-30T13:45:16.467Z,44.73
2023-04-30T13:47:43.496Z,45.14
2023-04-30T13:50:10.910Z,45.63
2023-04-30T13:52:37.680Z,46.06
2023-04-30T13:55:05.968Z,46.33
2023-04-30T13:57:35.542Z,46.66
2023-04-30T14:00:02.514Z,47.05
2023-04-30T14:02:29.678Z,47.04
2023-04-30T14:05:05.288Z,47.10
2023-04-30T14:07:33.323Z,47.50
2023-04-30T14:10:00.097Z,47.86
2023-04-30T14:12:26.850Z,47.39
2023-04-30T14:14:53.793Z,47.65
2023-04-30T14:17:20.810Z,47.54
2023-04-30T14:19:47.641Z,47.96
2023-04-30T14:22:14.817Z,48.42
2023-04-30T14:24:41.524Z,48.53
2023-04-30T14:27:08.368Z,48.96
2023-04-30T14:29:37.490Z,49.21
2023-04-30T14:32:06.169Z,49.13
2023-04-30T14:34:33.122Z,49.44
2023-04-30T14:37:01.958Z,49.72
2023-04-30T14:39:28.726Z,49.33
2023-04-30T14:41:55.477Z,50.07
2023-04-30T14:44:25.173Z,49.68
2023-04-30T14:46:52.223Z,50.16
2023-04-30T14:49:20.125Z,49.89
2023-04-30T14:51:47.050Z,50.37
2023-04-30T14:54:13.837Z,50.04
2023-04-30T14:56:41.216Z,49.81
2023-04-30T14:59:08.073Z,50.11
2023-04-30T15:01:34.957Z,49.75
2023-04-30T15:04:02.423Z,49.68
2023-04-30T15:06:29.290Z,49.69
2023-04-30T15:08:56.284Z,49.81
2023-04-30T15:11:24.271Z,50.28
2023-04-30T15:13:51.111Z,50.37
2023-04-30T15:16:18.255Z,50.40
2023-04-30T15:18:45.108Z,50.12
2023-04-30T15:21:12.651Z,50.14
2023-04-30T15:23:39.407Z,50.34
2023-04-30T15:26:06.518Z,49.75
2023-04-30T15:28:33.321Z,49.86
2023-04-30T15:31:06.424Z,49.60
2023-04-30T15:33:34.850Z,50.16
2023-04-30T15:36:01.707Z,49.94
2023-04-30T15:38:28.436Z,50.47
2023-04-30T15:40:55.368Z,50.15
2023-04-30T15:43:22.165Z,50.88
2023-04-30T15:45:49.583Z,50.96
2023-04-30T15:48:16.426Z,51.05
2023-04-30T15:50:43.222Z,50.84
2023-04-30T15:53:10.109Z,51.10
2023-04-30T15:55:37.343Z,51.06
2023-04-30T15:58:04.720Z,51.54
2023-04-30T16:00:31.637Z,51.51
2023-04-30T16:02:58.490Z,51.00
2023-04-30T16:05:25.461Z,50.64
2023-04-30T16:07:53.561Z,50.20
2023-04-30T16:10:20.516Z,49.76
2023-04-30T16:12:47.534Z,50.01
2023-04-30T16:15:15.335Z,49.36
2023-04-30T16:17:42.116Z,49.64
2023-04-30T16:20:09.433Z,49.55
2023-04-30T16:22:37.414Z,49.23
2023-04-30T16:25:04.645Z,49.52
2023-04-30T16:27:31.525Z,49.21
2023-04-30T16:29:58.500Z,49.45
2023-04-30T16:32:25.515Z,49.38
2023-04-30T16:34:54.707Z,49.38
2023-04-30T16:37:21.451Z,49.32
2023-04-30T16:39:48.186Z,49.07
2023-04-30T16:42:15.053Z,48.94
2023-04-30T16:44:41.855Z,48.60
2023-04-30T16:47:09.301Z,48.65
2023-04-30T16:49:36.133Z,48.76
2023-04-30T16:52:03.256Z,48.63
2023-04-30T16:54:30.079Z,48.58
2023-04-30T16:56:57.011Z,48.54
2023-04-30T16:59:24.839Z,48.69
2023-04-30T17:01:51.670Z,48.67
2023-04-30T17:04:18.627Z,48.99
2023-04-30T17:06:46.635Z,49.09
2023-04-30T17:09:13.507Z,49.40
2023-04-30T17:11:40.309Z,49.29
2023-04-30T17:14:07.065Z,49.08
2023-04-30T17:16:33.869Z,48.98
2023-04-30T17:19:01.464Z,49.09
2023-04-30T17:21:29.839Z,49.05
2023-04-30T17:23:56.718Z,49.67
2023-04-30T17:26:25.203Z,49.31
2023-04-30T17:28:51.935Z,49.54
2023-04-30T17:31:19.306Z,49.46
2023-04-30T17:33:46.496Z,49.40
2023-04-30T17:36:13.410Z,49.42
2023-04-30T17:38:40.170Z,49.11
2023-04-30T17:41:07.038Z,49.66
2023-04-30T17:43:33.859Z,49.78
2023-04-30T17:46:00.648Z,49.81
2023-04-30T17:48:27.533Z,49.75
2023-04-30T17:50:54.642Z,50.05
2023-04-30T17:53:21.373Z,50.02
2023-04-30T17:55:48.673Z,50.19
2023-04-30T17:58:16.083Z,50.38
2023-04-30T18:00:43.595Z,50.53
2023-04-30T18:03:10.895Z,50.38
2023-04-30T18:05:39.288Z,50.62
2023-04-30T18:08:06.654Z,50.69
2023-04-30T18:10:33.532Z,51.24
2023-04-30T18:13:00.410Z,50.99
2023-04-30T18:15:27.717Z,51.01
2023-04-30T18:17:54.721Z,51.02
2023-04-30T18:20:22.161Z,51.20
2023-04-30T18:22:49.120Z,51.39
2023-04-30T18:25:17.488Z,51.83
2023-04-30T18:27:44.456Z,51.67
2023-04-30T18:30:12.708Z,51.60
2023-04-30T18:32:39.824Z,51.70
2023-04-30T18:35:06.932Z,51.92
2023-04-30T18:37:33.992Z,51.90
2023-04-30T18:40:00.957Z,51.95
2023-04-30T18:42:28.546Z,52.17
2023-04-30T18:44:56.477Z,51.91
2023-04-30T18:47:23.901Z,52.19
2023-04-30T18:49:50.750Z,52.02
2023-04-30T18:52:17.498Z,52.18
2023-04-30T18:54:44.641Z,52.10
2023-04-30T18:57:14.922Z,52.01
2023-04-30T18:59:42.184Z,52.05
2023-04-30T19:02:09.698Z,51.89
2023-04-30T19:04:36.904Z,52.15
2023-04-30T19:07:04.116Z,51.93
2023-04-30T19:09:30.930Z,52.21
2023-04-30T19:11:58.088Z,52.04
2023-04-30T19:14:26.332Z,52.00
2023-04-30T19:16:53.408Z,51.82
2023-04-30T19:19:20.211Z,52.22
2023-04-30T19:21:47.073Z,52.07
2023-04-30T19:24:13.988Z,52.13
2023-04-30T19:26:42.782Z,52.24
2023-04-30T19:29:09.529Z,52.17
2023-04-30T19:31:36.624Z,52.42
2023-04-30T19:34:03.927Z,52.52
2023-04-30T19:36:30.671Z,52.84
2023-04-30T19:38:57.674Z,52.92
2023-04-30T19:41:24.597Z,53.00
2023-04-30T19:43:53.582Z,52.81
2023-04-30T19:46:21.385Z,52.97
2023-04-30T19:48:48.209Z,53.10
2023-04-30T19:51:15.392Z,53.14
2023-04-30T19:53:42.426Z,53.36
2023-04-30T19:56:09.754Z,53.37
2023-04-30T19:58:36.541Z,53.62
2023-04-30T20:01:03.703Z,53.77
2023-04-30T20:03:30.676Z,53.80
2023-04-30T20:05:58.436Z,53.99
2023-04-30T20:08:25.418Z,54.07
2023-04-30T20:10:52.282Z,54.22
2023-04-30T20:13:21.069Z,54.15
2023-04-30T20:15:48.761Z,54.22
2023-04-30T20:18:15.580Z,54.32
2023-04-30T20:20:42.393Z,54.58
2023-04-30T20:23:16.395Z,54.60
2023-04-30T20:25:46.779Z,54.80
2023-04-30T20:28:14.613Z,54.70
2023-04-30T20:30:44.820Z,55.05
2023-04-30T20:33:12.366Z,55.35
2023-04-30T20:35:40.880Z,55.23
2023-04-30T20:38:08.544Z,55.41
2023-04-30T20:40:35.337Z,55.51
2023-04-30T20:43:02.151Z,55.86
2023-04-30T20:45:29.015Z,55.87
2023-04-30T20:47:56.091Z,55.83
2023-04-30T20:50:22.911Z,56.12
2023-04-30T20:52:49.697Z,56.46
2023-04-30T20:55:16.460Z,56.57
2023-04-30T20:57:43.407Z,56.76
2023-04-30T21:00:10.843Z,56.60
2023-04-30T21:02:37.918Z,56.76
2023-04-30T21:05:06.175Z,56.80
2023-04-30T21:07:34.686Z,57.04
2023-04-30T21:10:02.269Z,57.10
2023-04-30T21:12:29.134Z,57.18
2023-04-30T21:14:56.430Z,57.43
2023-04-30T21:17:23.342Z,57.33
2023-04-30T21:19:50.100Z,57.57
2023-04-30T21:22:16.955Z,57.59
2023-04-30T21:24:44.146Z,57.71
2023-04-30T21:27:11.140Z,57.65
2023-04-30T21:29:38.005Z,57.81
2023-04-30T21:32:05.099Z,57.82
2023-04-30T21:34:32.260Z,57.78
2023-04-30T21:37:00.069Z,58.27
2023-04-30T21:39:27.197Z,58.31
2023-04-30T21:41:54.026Z,58.27
2023-04-30T21:44:20.948Z,58.61
2023-04-30T21:46:47.885Z,58.34
2023-04-30T21:49:15.432Z,58.31
2023-04-30T21:51:42.325Z,58.29
2023-04-30T21:54:09.045Z,58.77
2023-04-30T21:56:36.714Z,58.56
2023-04-30T21:59:03.629Z,58.85
2023-04-30T22:01:30.494Z,58.81
2023-04-30T22:03:57.395Z,58.88
2023-04-30T22:06:24.320Z,58.68
2023-04-30T22:08:51.214Z,58.88
2023-04-30T22:11:18.523Z,59.18
2023-04-30T22:13:45.416Z,59.46
2023-04-30T22:16:12.450Z,59.21
2023-04-30T22:18:39.951Z,59.27
2023-04-30T22:21:06.935Z,59.53
2023-04-30T22:23:33.748Z,59.62
2023-04-30T22:26:01.323Z,59.63
2023-04-30T22:28:28.175Z,59.71
2023-04-30T22:30:59.798Z,60.09
2023-04-30T22:33:26.718Z,60.17
2023-04-30T22:35:53.744Z,60.12
2023-04-30T22:38:21.241Z,60.18
2023-04-30T22:40:47.952Z,60.35
2023-04-30T22:43:14.880Z,60.42
2023-04-30T22:45:41.762Z,60.50
2023-04-30T22:48:09.854Z,60.66
2023-04-30T22:50:37.709Z,60.91
2023-04-30T22:53:04.591Z,61.00
2023-04-30T22:55:31.732Z,60.97
2023-04-30T22:58:00.242Z,61.10
2023-04-30T23:00:27.967Z,60.96
2023-04-30T23:02:55.079Z,61.19
2023-04-30T23:05:21.993Z,61.10
2023-04-30T23:07:49.605Z,61.19
2023-04-30T23:10:16.879Z,61.45
2023-04-30T23:12:43.882Z,61.46
2023-04-30T23:15:10.983Z,61.77
2023-04-30T23:17:37.780Z,61.87
2023-04-30T23:20:05.115Z,61.67
2023-04-30T23:22:31.894Z,62.00
2023-04-30T23:24:58.677Z,61.64
2023-04-30T23:27:28.463Z,61.95
2023-04-30T23:29:56.480Z,62.00
2023-04-30T23:32:23.643Z,61.83
2023-04-30T23:34:50.560Z,61.76
2023-04-30T23:37:17.324Z,61.83
2023-04-30T23:39:44.100Z,62.25
2023-04-30T23:42:11.791Z,62.18
2023-04-30T23:44:38.562Z,62.04
2023-04-30T23:47:06.710Z,62.37
2023-04-30T23:49:33.748Z,62.50
2023-04-30T23:52:00.548Z,62.81
2023-04-30T23:54:27.392Z,62.59
2023-04-30T23:56:54.501Z,63.06
2023-04-30T23:59:22.144Z,62.71
